createdAt,value
2023-05-23T00:01:07.345Z,13.73
2023-05-23T00:03:35.089Z,12.80
2023-05-23T00:06:02.392Z,12.40
2023-05-23T00:08:29.174Z,12.73
2023-05-23T00:10:55.905Z,12.85
2023-05-23T00:13:22.984Z,12.77
2023-05-23T00:15:49.936Z,13.03
2023-05-23T00:18:17.082Z,13.80
2023-05-23T00:20:45.620Z,13.30
2023-05-23T00:23:19.333Z,13.32
2023-05-23T00:25:52.820Z,12.65
2023-05-23T00:28:20.935Z,12.23
2023-05-23T00:30:51.694Z,13.37
2023-05-23T00:33:22.134Z,12.47
2023-05-23T00:35:49.322Z,12.77
2023-05-23T00:38:17.302Z,12.70
2023-05-23T00:40:44.134Z,12.37
2023-05-23T00:43:11.069Z,12.05
2023-05-23T00:45:38.155Z,11.90
2023-05-23T00:48:06.519Z,12.80
2023-05-23T00:50:33.967Z,12.07
2023-05-23T00:53:01.851Z,12.67
2023-05-23T00:55:29.040Z,11.37
2023-05-23T00:57:57.367Z,12.07
2023-05-23T01:00:26.124Z,12.00
2023-05-23T01:02:53.621Z,11.67
2023-05-23T01:05:22.677Z,12.07
2023-05-23T01:07:51.116Z,11.73
2023-05-23T01:10:21.541Z,12.37
2023-05-23T01:13:05.928Z,12.37
2023-05-23T01:15:54.510Z,12.73
2023-05-23T01:18:31.003Z,10.90
2023-05-23T01:21:06.680Z,11.93
2023-05-23T01:23:47.563Z,12.20
2023-05-23T01:26:32.857Z,11.27
2023-05-23T01:29:13.812Z,10.17
2023-05-23T01:31:46.359Z,10.20
2023-05-23T01:34:14.389Z,11.70
2023-05-23T01:36:43.768Z,11.37
2023-05-23T01:39:11.426Z,11.68
2023-05-23T01:41:38.523Z,11.07
2023-05-23T01:44:06.189Z,11.60
2023-05-23T01:46:35.886Z,11.30
2023-05-23T01:49:04.678Z,10.97
2023-05-23T01:51:34.561Z,10.98
2023-05-23T01:54:02.536Z,10.35
2023-05-23T01:56:30.538Z,10.03
2023-05-23T01:58:57.905Z,11.00
2023-05-23T02:01:24.801Z,10.93
2023-05-23T02:03:51.625Z,11.00
2023-05-23T02:06:18.422Z,11.33
2023-05-23T02:08:46.820Z,12.60
2023-05-23T02:11:13.597Z,12.73
2023-05-23T02:13:40.535Z,11.70
2023-05-23T02:16:08.101Z,10.85
2023-05-23T02:18:38.240Z,12.57
2023-05-23T02:21:06.059Z,11.87
2023-05-23T02:23:33.043Z,11.45
2023-05-23T02:25:59.782Z,11.48
2023-05-23T02:28:26.530Z,11.13
2023-05-23T02:30:53.317Z,10.95
2023-05-23T02:33:20.175Z,11.80
2023-05-23T02:35:47.912Z,11.82
2023-05-23T02:38:15.788Z,12.00
2023-05-23T02:40:42.593Z,12.55
2023-05-23T02:43:09.312Z,12.07
2023-05-23T02:45:36.388Z,12.73
2023-05-23T02:48:04.314Z,12.52
2023-05-23T02:50:31.627Z,12.25
2023-05-23T02:52:58.514Z,11.93
2023-05-23T02:55:25.373Z,12.50
2023-05-23T02:57:52.439Z,11.60
2023-05-23T03:00:19.539Z,12.13
2023-05-23T03:02:50.929Z,12.88
2023-05-23T03:05:18.467Z,13.27
2023-05-23T03:07:45.914Z,13.35
2023-05-23T03:10:12.938Z,12.63
2023-05-23T03:12:39.732Z,13.32
2023-05-23T03:15:07.900Z,13.43
2023-05-23T03:17:37.184Z,13.15
2023-05-23T03:20:04.970Z,12.10
2023-05-23T03:22:32.281Z,12.38
2023-05-23T03:24:59.045Z,12.80
2023-05-23T03:27:26.842Z,11.82
2023-05-23T03:29:53.646Z,12.98
2023-05-23T03:32:20.549Z,13.32
2023-05-23T03:34:47.431Z,14.95
2023-05-23T03:37:14.221Z,13.98
2023-05-23T03:39:41.165Z,15.00
2023-05-23T03:42:08.126Z,13.70
2023-05-23T03:44:34.952Z,13.68
2023-05-23T03:47:04.011Z,15.13
2023-05-23T03:49:30.816Z,14.45
2023-05-23T03:51:57.725Z,14.50
2023-05-23T03:54:24.467Z,15.07
2023-05-23T03:56:52.240Z,15.30
2023-05-23T03:59:19.633Z,15.32
2023-05-23T04:01:46.555Z,14.73
2023-05-23T04:04:13.660Z,15.40
2023-05-23T04:06:40.606Z,15.32
2023-05-23T04:09:07.430Z,15.18
2023-05-23T04:11:38.455Z,15.73
2023-05-23T04:14:05.327Z,16.52
2023-05-23T04:16:33.456Z,17.42
2023-05-23T04:19:05.497Z,16.52
2023-05-23T04:21:32.811Z,15.90
2023-05-23T04:24:08.264Z,15.65
2023-05-23T04:26:36.574Z,16.63
2023-05-23T04:29:06.432Z,16.02
2023-05-23T04:31:36.545Z,15.27
2023-05-23T04:34:04.199Z,16.55
2023-05-23T04:36:38.244Z,15.50
2023-05-23T04:39:06.228Z,15.48
2023-05-23T04:41:38.753Z,14.73
2023-05-23T04:44:18.282Z,16.35
2023-05-23T04:47:09.727Z,15.55
2023-05-23T04:50:09.917Z,14.15
2023-05-23T04:52:37.165Z,15.98
2023-05-23T04:55:04.801Z,16.17
2023-05-23T04:57:31.713Z,15.52
2023-05-23T04:59:59.457Z,15.75
2023-05-23T05:02:27.531Z,16.15
2023-05-23T05:04:54.394Z,16.85
2023-05-23T05:07:21.717Z,16.42
2023-05-23T05:09:48.792Z,15.63
2023-05-23T05:12:16.919Z,15.80
2023-05-23T05:14:43.698Z,15.95
2023-05-23T05:17:10.686Z,16.63
2023-05-23T05:19:50.458Z,16.00
2023-05-23T05:22:18.634Z,18.38
2023-05-23T05:24:45.538Z,19.80
2023-05-23T05:27:12.631Z,17.23
2023-05-23T05:29:39.395Z,18.00
2023-05-23T05:32:09.178Z,18.15
2023-05-23T05:34:38.080Z,16.92
2023-05-23T05:37:06.138Z,17.13
2023-05-23T05:39:33.199Z,17.88
2023-05-23T05:42:03.818Z,18.83
2023-05-23T05:44:30.976Z,17.83
2023-05-23T05:46:58.084Z,16.73
2023-05-23T05:49:25.081Z,16.95
2023-05-23T05:51:51.965Z,16.90
2023-05-23T05:54:19.447Z,16.58
2023-05-23T05:56:47.362Z,17.05
2023-05-23T05:59:14.689Z,16.27
2023-05-23T06:01:41.655Z,18.17
2023-05-23T06:04:08.800Z,17.63
2023-05-23T06:06:35.712Z,18.23
2023-05-23T06:09:02.776Z,19.13
2023-05-23T06:11:29.808Z,18.60
2023-05-23T06:13:56.546Z,18.05
2023-05-23T06:16:24.073Z,18.95
2023-05-23T06:18:50.897Z,20.45
2023-05-23T06:21:18.207Z,20.08
2023-05-23T06:23:49.112Z,20.58
2023-05-23T06:26:16.007Z,18.67
2023-05-23T06:28:42.851Z,19.23
2023-05-23T06:31:12.658Z,19.83
2023-05-23T06:33:39.510Z,18.95
2023-05-23T06:36:06.623Z,19.75
2023-05-23T06:38:36.179Z,20.20
2023-05-23T06:41:04.052Z,20.98
2023-05-23T06:43:32.043Z,20.35
2023-05-23T06:46:21.588Z,20.40
2023-05-23T06:48:50.709Z,22.13
2023-05-23T06:51:21.231Z,20.90
2023-05-23T06:53:48.595Z,21.02
2023-05-23T06:56:16.134Z,17.05
2023-05-23T06:58:54.779Z,15.52
2023-05-23T07:01:21.940Z,16.00
2023-05-23T07:03:50.848Z,15.82
2023-05-23T07:06:18.240Z,15.02
2023-05-23T07:08:46.792Z,14.48
2023-05-23T07:11:14.832Z,13.95
2023-05-23T07:13:44.498Z,13.43
2023-05-23T07:16:19.623Z,13.45
2023-05-23T07:19:02.071Z,12.20
2023-05-23T07:21:29.936Z,12.23
2023-05-23T07:23:56.714Z,12.90
2023-05-23T07:26:23.670Z,13.02
2023-05-23T07:28:54.577Z,11.23
2023-05-23T07:31:22.600Z,11.20
2023-05-23T07:33:58.604Z,12.95
2023-05-23T07:36:34.201Z,12.95
2023-05-23T07:39:02.301Z,12.40
2023-05-23T07:41:29.225Z,12.00
2023-05-23T07:43:56.046Z,13.02
2023-05-23T07:46:23.198Z,11.80
2023-05-23T07:48:50.036Z,12.60
2023-05-23T07:51:18.955Z,12.23
2023-05-23T07:53:45.767Z,12.25
2023-05-23T07:56:13.403Z,12.10
2023-05-23T07:58:41.894Z,12.50
2023-05-23T08:01:09.042Z,11.90
2023-05-23T08:04:02.626Z,13.23
2023-05-23T08:06:52.116Z,13.13
2023-05-23T08:09:38.173Z,14.05
2023-05-23T08:12:06.168Z,14.30
2023-05-23T08:14:46.290Z,13.75
2023-05-23T08:17:24.856Z,13.23
2023-05-23T08:19:53.148Z,13.70
2023-05-23T08:22:20.173Z,13.07
2023-05-23T08:24:46.971Z,13.82
2023-05-23T08:27:14.106Z,14.85
2023-05-23T08:29:42.226Z,15.32
2023-05-23T08:32:09.618Z,13.18
2023-05-23T08:34:36.629Z,14.30
2023-05-23T08:37:03.833Z,13.38
2023-05-23T08:39:31.021Z,13.73
2023-05-23T08:42:16.576Z,15.30
2023-05-23T08:44:43.847Z,16.90
2023-05-23T08:47:12.853Z,16.10
2023-05-23T08:50:02.638Z,19.35
2023-05-23T08:52:33.621Z,15.50
2023-05-23T08:55:04.303Z,16.13
2023-05-23T08:57:32.032Z,16.33
2023-05-23T09:00:14.568Z,15.70
2023-05-23T09:02:44.140Z,14.50
2023-05-23T09:05:23.740Z,15.48
2023-05-23T09:07:55.136Z,15.98
2023-05-23T09:10:22.716Z,15.80
2023-05-23T09:12:50.677Z,16.38
2023-05-23T09:15:17.680Z,14.88
2023-05-23T09:17:45.811Z,16.52
2023-05-23T09:20:16.576Z,16.63
2023-05-23T09:22:50.703Z,15.93
2023-05-23T09:25:18.521Z,15.10
2023-05-23T09:27:48.315Z,14.30
2023-05-23T09:30:16.125Z,14.32
2023-05-23T09:32:44.720Z,12.98
2023-05-23T09:35:14.224Z,13.68
2023-05-23T09:37:46.125Z,13.63
2023-05-23T09:40:15.399Z,15.18
2023-05-23T09:42:53.138Z,14.10
2023-05-23T09:45:19.999Z,16.65
2023-05-23T09:47:53.709Z,14.68
2023-05-23T09:50:21.302Z,17.05
2023-05-23T09:52:48.587Z,16.33
2023-05-23T09:55:15.735Z,17.08
2023-05-23T09:57:43.904Z,15.10
2023-05-23T10:00:41.528Z,16.75
2023-05-23T10:03:13.651Z,15.35
2023-05-23T10:05:51.498Z,14.95
2023-05-23T10:08:34.234Z,16.83
2023-05-23T10:11:16.997Z,16.15
2023-05-23T10:13:45.783Z,15.63
2023-05-23T10:16:28.958Z,15.88
2023-05-23T10:18:59.305Z,16.20
2023-05-23T10:21:38.955Z,17.42
2023-05-23T10:24:07.436Z,14.52
2023-05-23T10:26:34.460Z,15.10
2023-05-23T10:29:01.779Z,14.55
2023-05-23T10:31:29.786Z,13.98
2023-05-23T10:34:19.993Z,15.65
2023-05-23T10:37:06.686Z,16.98
2023-05-23T10:39:44.483Z,17.05
2023-05-23T10:42:31.530Z,17.70
2023-05-23T10:45:15.595Z,18.33
2023-05-23T10:47:42.501Z,18.88
2023-05-23T10:50:13.985Z,19.67
2023-05-23T10:52:41.931Z,19.05
2023-05-23T10:55:17.893Z,20.77
2023-05-23T10:57:45.226Z,21.63
2023-05-23T11:00:16.494Z,21.15
2023-05-23T11:03:06.190Z,20.60
2023-05-23T11:05:33.926Z,20.42
2023-05-23T11:08:14.641Z,22.88
2023-05-23T11:11:00.309Z,21.73
2023-05-23T11:13:56.191Z,21.13
2023-05-23T11:16:31.626Z,23.02
2023-05-23T11:19:18.805Z,23.88
2023-05-23T11:21:49.223Z,21.88
2023-05-23T11:24:16.621Z,22.20
2023-05-23T11:27:00.393Z,22.52
2023-05-23T11:29:28.928Z,23.13
2023-05-23T11:31:56.739Z,21.58
2023-05-23T11:34:26.416Z,20.10
2023-05-23T11:36:56.634Z,19.65
2023-05-23T11:39:24.130Z,20.75
2023-05-23T11:42:02.717Z,19.00
2023-05-23T11:44:29.881Z,18.60
2023-05-23T11:47:04.813Z,16.23
2023-05-23T11:49:32.703Z,15.88
2023-05-23T11:52:00.390Z,17.00
2023-05-23T11:54:27.513Z,16.67
2023-05-23T11:56:55.678Z,17.52
2023-05-23T11:59:26.553Z,17.20
2023-05-23T12:01:54.387Z,17.95
2023-05-23T12:04:21.830Z,20.85
2023-05-23T12:06:50.673Z,19.48
2023-05-23T12:09:17.583Z,19.15
2023-05-23T12:11:46.012Z,18.15
2023-05-23T12:14:17.536Z,18.13
2023-05-23T12:16:46.920Z,16.42
2023-05-23T12:19:16.637Z,15.50
2023-05-23T12:21:49.087Z,12.52
2023-05-23T12:24:17.604Z,10.48
2023-05-23T12:26:51.356Z,8.75
2023-05-23T12:29:37.827Z,9.65
2023-05-23T12:32:08.212Z,10.23
2023-05-23T12:34:35.218Z,10.73
2023-05-23T12:39:36.576Z,10.40
2023-05-23T12:42:09.978Z,10.93
2023-05-23T12:44:37.087Z,9.90
2023-05-23T12:47:04.198Z,9.80
2023-05-23T12:49:31.262Z,8.60
2023-05-23T12:51:58.265Z,9.50
2023-05-23T12:54:25.179Z,8.95
2023-05-23T12:56:51.945Z,9.43
2023-05-23T12:59:19.546Z,7.95
2023-05-23T13:01:47.261Z,7.65
2023-05-23T13:04:16.277Z,6.45
2023-05-23T13:06:43.138Z,5.72
2023-05-23T13:09:10.335Z,6.40
2023-05-23T13:11:38.232Z,6.22
2023-05-23T13:14:05.037Z,6.50
2023-05-23T13:16:32.379Z,6.28
2023-05-23T13:18:59.315Z,7.07
2023-05-23T13:21:26.494Z,6.85
2023-05-23T13:23:53.416Z,6.85
2023-05-23T13:26:20.383Z,7.40
2023-05-23T13:28:47.195Z,7.45
2023-05-23T13:31:14.042Z,8.38
2023-05-23T13:33:42.030Z,9.48
2023-05-23T13:36:08.853Z,9.10
2023-05-23T13:38:36.064Z,10.70
2023-05-23T13:41:02.913Z,7.85
2023-05-23T13:43:29.893Z,7.80
2023-05-23T13:45:56.782Z,7.18
2023-05-23T13:48:24.188Z,7.38
2023-05-23T13:50:51.317Z,7.35
2023-05-23T13:53:21.700Z,7.00
2023-05-23T13:55:49.121Z,7.90
2023-05-23T13:58:15.949Z,8.02
2023-05-23T14:00:43.542Z,8.60
2023-05-23T14:03:12.092Z,8.43
2023-05-23T14:05:39.085Z,9.65
2023-05-23T14:08:06.090Z,9.07
2023-05-23T14:10:35.779Z,8.32
2023-05-23T14:13:02.583Z,7.43
2023-05-23T14:15:30.120Z,8.25
2023-05-23T14:17:58.305Z,8.00
2023-05-23T14:20:25.545Z,7.90
2023-05-23T14:22:52.579Z,8.55
2023-05-23T14:25:19.413Z,7.47
2023-05-23T14:27:46.270Z,7.53
2023-05-23T14:30:13.885Z,8.43
2023-05-23T14:32:41.292Z,7.78
2023-05-23T14:35:12.091Z,7.45
2023-05-23T14:37:39.400Z,8.25
2023-05-23T14:40:07.192Z,9.02
2023-05-23T14:42:34.079Z,10.75
2023-05-23T14:45:00.812Z,10.55
2023-05-23T14:47:27.921Z,12.68
2023-05-23T14:49:54.955Z,9.65
2023-05-23T14:52:21.896Z,7.32
2023-05-23T14:54:48.725Z,8.30
2023-05-23T14:57:15.646Z,8.10
2023-05-23T14:59:42.623Z,7.15
2023-05-23T15:02:09.734Z,7.80
2023-05-23T15:04:37.591Z,7.32
2023-05-23T15:07:04.914Z,7.28
2023-05-23T15:09:32.298Z,7.22
2023-05-23T15:11:59.608Z,7.43
2023-05-23T15:14:29.823Z,7.90
2023-05-23T15:16:57.217Z,7.78
2023-05-23T15:19:24.860Z,8.60
2023-05-23T15:21:52.156Z,8.10
2023-05-23T15:24:19.287Z,8.23
2023-05-23T15:26:46.203Z,7.63
2023-05-23T15:29:14.620Z,9.02
2023-05-23T15:31:41.657Z,8.25
2023-05-23T15:34:08.634Z,8.35
2023-05-23T15:36:36.580Z,9.18
2023-05-23T15:39:05.337Z,10.13
2023-05-23T15:41:32.260Z,10.77
2023-05-23T15:43:59.455Z,10.88
2023-05-23T15:46:26.522Z,11.38
2023-05-23T15:48:53.576Z,12.20
2023-05-23T15:51:21.102Z,12.20
2023-05-23T15:54:00.744Z,13.38
2023-05-23T15:56:28.414Z,12.88
2023-05-23T15:58:56.262Z,14.75
2023-05-23T16:01:23.274Z,14.52
2023-05-23T16:03:50.633Z,15.45
2023-05-23T16:06:17.472Z,15.30
2023-05-23T16:08:44.707Z,16.10
2023-05-23T16:11:11.697Z,16.63
2023-05-23T16:13:38.518Z,18.13
2023-05-23T16:16:05.703Z,15.55
2023-05-23T16:18:32.685Z,17.40
2023-05-23T16:20:59.950Z,16.73
2023-05-23T16:23:27.027Z,16.20
2023-05-23T16:25:53.975Z,17.48
2023-05-23T16:28:21.760Z,17.20
2023-05-23T16:30:50.614Z,17.45
2023-05-23T16:33:17.596Z,17.60
2023-05-23T16:35:44.642Z,18.00
2023-05-23T16:38:11.896Z,17.60
2023-05-23T16:40:38.789Z,18.58
2023-05-23T16:43:05.776Z,16.92
2023-05-23T16:45:32.629Z,17.30
2023-05-23T16:48:01.058Z,17.60
2023-05-23T16:50:28.023Z,17.20
2023-05-23T16:52:55.897Z,16.90
2023-05-23T16:55:22.868Z,17.20
2023-05-23T16:57:49.784Z,17.85
2023-05-23T17:00:17.385Z,16.83
2023-05-23T17:02:44.337Z,17.65
2023-05-23T17:05:11.667Z,17.35
2023-05-23T17:07:38.397Z,15.93
2023-05-23T17:10:05.994Z,17.08
2023-05-23T17:12:32.776Z,17.80
2023-05-23T17:14:59.543Z,17.50
2023-05-23T17:17:26.306Z,17.52
2023-05-23T17:19:53.235Z,17.35
2023-05-23T17:22:20.131Z,15.95
2023-05-23T17:24:47.159Z,16.10
2023-05-23T17:27:14.129Z,16.63
2023-05-23T17:29:41.212Z,16.60
2023-05-23T17:32:09.098Z,15.10
2023-05-23T17:34:35.853Z,16.65
2023-05-23T17:37:02.750Z,15.68
2023-05-23T17:39:29.608Z,15.63
2023-05-23T17:41:56.474Z,17.33
2023-05-23T17:44:23.275Z,16.83
2023-05-23T17:46:50.275Z,16.27
2023-05-23T17:49:17.623Z,16.02
2023-05-23T17:51:44.631Z,16.52
2023-05-23T17:54:11.556Z,16.25
2023-05-23T17:56:38.371Z,15.63
2023-05-23T17:59:05.895Z,17.13
2023-05-23T18:01:34.267Z,17.77
2023-05-23T18:04:02.152Z,17.20
2023-05-23T18:06:29.182Z,17.25
2023-05-23T18:08:56.746Z,17.80
2023-05-23T18:11:24.405Z,18.30
2023-05-23T18:13:51.445Z,18.05
2023-05-23T18:16:18.221Z,17.60
2023-05-23T18:21:11.943Z,17.20
2023-05-23T18:23:38.924Z,18.38
2023-05-23T18:26:05.728Z,17.05
2023-05-23T18:28:32.619Z,18.08
2023-05-23T18:30:59.366Z,18.55
2023-05-23T18:33:28.038Z,19.27
2023-05-23T18:35:54.914Z,17.95
2023-05-23T18:38:22.034Z,17.67
2023-05-23T18:40:48.986Z,18.00
2023-05-23T18:43:17.486Z,18.48
2023-05-23T18:45:44.713Z,18.80
2023-05-23T18:48:12.185Z,18.75
2023-05-23T18:50:39.083Z,18.38
2023-05-23T18:53:06.412Z,19.25
2023-05-23T18:55:34.065Z,20.10
2023-05-23T18:58:01.294Z,15.35
2023-05-23T19:00:28.405Z,15.38
2023-05-23T19:02:55.397Z,13.50
2023-05-23T19:05:22.183Z,13.45
2023-05-23T19:07:48.971Z,12.57
2023-05-23T19:10:15.994Z,12.65
2023-05-23T19:12:43.001Z,14.13
2023-05-23T19:15:10.776Z,13.85
2023-05-23T19:17:38.714Z,16.30
2023-05-23T19:20:06.360Z,15.43
2023-05-23T19:22:47.051Z,15.40
2023-05-23T19:25:18.415Z,14.90
2023-05-23T19:27:45.558Z,14.35
2023-05-23T19:30:12.583Z,13.90
2023-05-23T19:32:39.378Z,13.32
2023-05-23T19:35:06.766Z,13.65
2023-05-23T19:37:33.585Z,13.65
2023-05-23T19:40:01.908Z,11.98
2023-05-23T19:42:28.825Z,14.00
2023-05-23T19:44:55.668Z,13.45
2023-05-23T19:47:22.462Z,13.73
2023-05-23T19:49:49.334Z,13.25
2023-05-23T19:52:16.153Z,12.35
2023-05-23T19:54:42.892Z,13.10
2023-05-23T19:57:09.711Z,11.98
2023-05-23T19:59:36.571Z,11.18
2023-05-23T20:02:03.564Z,9.90
2023-05-23T20:04:30.558Z,10.63
2023-05-23T20:06:57.847Z,10.70
2023-05-23T20:09:24.689Z,10.70
2023-05-23T20:11:51.477Z,11.00
2023-05-23T20:14:18.318Z,11.10
2023-05-23T20:16:45.086Z,10.65
2023-05-23T20:19:11.884Z,11.25
2023-05-23T20:21:38.825Z,10.10
2023-05-23T20:24:05.796Z,10.80
2023-05-23T20:26:32.652Z,11.02
2023-05-23T20:28:59.971Z,11.18
2023-05-23T20:31:26.860Z,11.63
2023-05-23T20:33:53.724Z,11.23
2023-05-23T20:36:21.086Z,9.55
2023-05-23T20:38:47.982Z,9.80
2023-05-23T20:41:14.991Z,9.70
2023-05-23T20:43:44.264Z,10.13
2023-05-23T20:46:11.786Z,9.35
2023-05-23T20:48:38.736Z,9.27
2023-05-23T20:51:07.515Z,9.40
2023-05-23T20:53:34.983Z,9.43
2023-05-23T20:56:03.163Z,9.07
2023-05-23T20:58:29.993Z,8.73
2023-05-23T21:00:57.857Z,9.10
2023-05-23T21:03:24.880Z,9.13
2023-05-23T21:05:51.730Z,8.60
2023-05-23T21:08:18.528Z,7.70
2023-05-23T21:10:49.346Z,8.30
2023-05-23T21:13:17.796Z,7.72
2023-05-23T21:15:44.867Z,7.70
2023-05-23T21:18:11.979Z,8.27
2023-05-23T21:20:38.892Z,7.47
2023-05-23T21:23:05.663Z,7.75
2023-05-23T21:25:32.805Z,7.93
2023-05-23T21:28:00.027Z,7.35
2023-05-23T21:30:26.820Z,8.10
2023-05-23T21:32:53.662Z,7.68
2023-05-23T21:35:20.456Z,8.20
2023-05-23T21:37:47.171Z,7.55
2023-05-23T21:40:13.932Z,7.60
2023-05-23T21:42:40.746Z,7.68
2023-05-23T21:45:08.412Z,7.80
2023-05-23T21:47:35.267Z,7.45
2023-05-23T21:50:04.219Z,7.65
2023-05-23T21:52:31.747Z,7.70
2023-05-23T21:54:58.724Z,7.70
2023-05-23T21:57:25.577Z,8.02
2023-05-23T21:59:52.319Z,7.32
2023-05-23T22:02:19.089Z,8.63
2023-05-23T22:04:46.274Z,8.32
2023-05-23T22:07:13.092Z,8.15
2023-05-23T22:09:39.873Z,8.02
2023-05-23T22:12:06.877Z,7.72
2023-05-23T22:14:33.764Z,7.95
2023-05-23T22:17:02.407Z,8.30
2023-05-23T22:19:30.391Z,7.80
2023-05-23T22:21:57.321Z,9.05
2023-05-23T22:24:25.301Z,8.82
2023-05-23T22:26:52.232Z,8.25
2023-05-23T22:29:19.007Z,8.10
2023-05-23T22:31:46.997Z,7.55
2023-05-23T22:34:14.106Z,7.25
2023-05-23T22:36:40.953Z,7.90
2023-05-23T22:39:08.217Z,8.05
2023-05-23T22:41:36.144Z,8.07
2023-05-23T22:44:03.429Z,8.30
2023-05-23T22:46:30.633Z,7.25
2023-05-23T22:48:58.222Z,8.10
2023-05-23T22:51:24.986Z,7.47
2023-05-23T22:53:52.821Z,7.05
2023-05-23T22:56:19.609Z,7.90
2023-05-23T22:58:46.499Z,7.63
2023-05-23T23:01:13.364Z,6.90
2023-05-23T23:03:40.233Z,7.30
2023-05-23T23:06:07.646Z,6.22
2023-05-23T23:08:34.534Z,6.53
2023-05-23T23:11:01.657Z,6.32
2023-05-23T23:13:28.489Z,6.30
2023-05-23T23:15:55.597Z,6.88
2023-05-23T23:18:22.337Z,6.97
2023-05-23T23:20:49.228Z,6.70
2023-05-23T23:23:16.193Z,7.22
2023-05-23T23:25:43.122Z,6.73
2023-05-23T23:28:09.890Z,6.80
2023-05-23T23:30:36.825Z,6.97
2023-05-23T23:33:04.000Z,6.47
2023-05-23T23:35:31.077Z,6.57
2023-05-23T23:37:57.790Z,7.18
2023-05-23T23:40:24.549Z,6.60
2023-05-23T23:42:51.327Z,6.10
2023-05-23T23:45:18.296Z,7.40
2023-05-23T23:47:46.262Z,6.47
2023-05-23T23:50:16.148Z,7.22
2023-05-23T23:52:43.021Z,7.47
2023-05-23T23:55:10.019Z,7.45
2023-05-23T23:57:36.772Z,7.80
